首页
METAR-TAF:

METAR-TAF

机场 :

費城國際機場

費城, 宾夕法尼亚州, 美国

纬度: 39-52-06N, 经度: 075-13-52W, 海拔: 6米

当前天气观测

该预报发布于24分钟前的13:54 UTC
风速9节,风向东转东北
温度 3°C
湿度 93%
气压 1014 hPa
能見度: 6.4公里
少量云层高于11000英尺
散云层高于20000英尺
阴天层高于25000英尺
轻雾

METAR: KPHL 151354Z 07009KT 4SM BR FEW110 SCT200 OVC250 03/02 A2995 RMK AO2 SLP141 T00280017

时间: 09:18 (14:18 UTC)

预报

该预报发布于2小时和58分钟前的11:20 UTC
预报有效从15日的 12点(UTC)到 16日的 18点(UTC)
风速7节,风向东转东北
能見度: 10公里
多云层高于25000英尺
短暂存在
从 15日的 12点(UTC)到 15日的 14点(UTC)
能見度: 9.7公里
轻雾
从 15日的 1400点(UTC)
风速8节,风向
能見度: 9.7公里
阴天层高于4000英尺
轻雾
从 15日的 2100点(UTC)
风速11节,风向
能見度: 10公里
阴天层高于3000英尺
从 16日的 0100点(UTC)
风速10节,风向东转东南
能見度: 8.0公里
阴天层高于2000英尺
小雨, 毛毛雨, 轻雾
从 16日的 0400点(UTC)
风速7节,风向东转东南
能見度: 3.2公里
阴天层高于700英尺
小雨, 轻雾
从 16日的 0600点(UTC)
风速6节,风向多变
能見度: 3.2公里
阴天层高于400英尺
小雨, 轻雾
从 16日的 1200点(UTC)
风速9节,风向西
能見度: 10公里
多云层高于1500英尺
从 16日的 1500点(UTC)
风速10节,风向西转西北
能見度: 10公里
散云层高于4000英尺

TAF: KPHL 151120Z 1512/1618 07007KT P6SM BKN250 TEMPO 1512/1514 6SM BR FM151400 09008KT 6SM BR OVC040 FM152100 10011KT P6SM OVC030 FM160100 11010KT 5SM -RADZ BR OVC020 FM160400 12007KT 2SM -RA BR OVC007 FM160600 VRB06KT 2SM -RA BR OVC004 FM161200 27009KT P6SM BKN015 FM161500 29010KT P6SM SCT040

超过4000个机场的气象观测和天气预报(METAR&TAF报告)。

可查询的气象台以黄色和红色小点在地图上表示。

将鼠标移到小点上方,可查看气象台名称。

然后点击查看天气观测和预报。

如需切换地图:点击带黑十字的绿色按钮放大地图;点击带横线的绿色按钮缩小地图;或者点击绿色箭头查看邻近地区的地图。


METAR-TAF: